sensor_id;sensor_type;location;lat;lon;timestamp;temperature;humidity
16172;DHT22;8192;53.596;10.166;2023-04-03T00:00:50;-2.90;99.90
16172;DHT22;8192;53.596;10.166;2023-04-03T00:03:17;-3.00;99.90
16172;DHT22;8192;53.596;10.166;2023-04-03T00:05:45;-3.00;99.90
16172;DHT22;8192;53.596;10.166;2023-04-03T00:08:13;-3.10;99.90
16172;DHT22;8192;53.596;10.166;2023-04-03T00:10:45;-3.10;99.90
16172;DHT22;8192;53.596;10.166;2023-04-03T00:13:13;-3.10;99.90
16172;DHT22;8192;53.596;10.166;2023-04-03T00:15:41;-3.10;99.90
16172;DHT22;8192;53.596;10.166;2023-04-03T00:18:08;-3.10;99.90
16172;DHT22;8192;53.596;10.166;2023-04-03T00:20:39;-3.10;99.90
16172;DHT22;8192;53.596;10.166;2023-04-03T00:23:08;-3.10;99.90
16172;DHT22;8192;53.596;10.166;2023-04-03T00:25:35;-3.00;99.90
16172;DHT22;8192;53.596;10.166;2023-04-03T00:28:03;-3.10;99.90
16172;DHT22;8192;53.596;10.166;2023-04-03T00:30:30;-3.10;99.90
16172;DHT22;8192;53.596;10.166;2023-04-03T00:32:58;-3.20;99.90
16172;DHT22;8192;53.596;10.166;2023-04-03T00:35:26;-3.20;99.90
16172;DHT22;8192;53.596;10.166;2023-04-03T00:37:55;-3.30;99.90
16172;DHT22;8192;53.596;10.166;2023-04-03T00:40:26;-3.30;99.90
16172;DHT22;8192;53.596;10.166;2023-04-03T00:42:56;-3.30;99.90
16172;DHT22;8192;53.596;10.166;2023-04-03T00:45:30;-3.30;99.90
16172;DHT22;8192;53.596;10.166;2023-04-03T00:47:59;-3.20;99.90
16172;DHT22;8192;53.596;10.166;2023-04-03T00:50:27;-3.20;99.90
16172;DHT22;8192;53.596;10.166;2023-04-03T00:52:56;-3.30;99.90
16172;DHT22;8192;53.596;10.166;2023-04-03T00:55:25;-3.30;99.90
16172;DHT22;8192;53.596;10.166;2023-04-03T00:57:52;-3.30;99.90
16172;DHT22;8192;53.596;10.166;2023-04-03T01:00:21;-3.30;99.90
16172;DHT22;8192;53.596;10.166;2023-04-03T01:02:49;-3.30;99.90
16172;DHT22;8192;53.596;10.166;2023-04-03T01:05:19;-3.30;99.90
16172;DHT22;8192;53.596;10.166;2023-04-03T01:07:47;-3.40;99.90
16172;DHT22;8192;53.596;10.166;2023-04-03T01:10:16;-3.50;99.90
16172;DHT22;8192;53.596;10.166;2023-04-03T01:12:47;-3.50;99.90
16172;DHT22;8192;53.596;10.166;2023-04-03T01:15:18;-3.50;99.90
16172;DHT22;8192;53.596;10.166;2023-04-03T01:17:48;-3.50;99.90
16172;DHT22;8192;53.596;10.166;2023-04-03T01:23:29;-3.50;99.90
16172;DHT22;8192;53.596;10.166;2023-04-03T01:25:58;-3.50;99.90
16172;DHT22;8192;53.596;10.166;2023-04-03T01:28:29;-3.60;99.90
16172;DHT22;8192;53.596;10.166;2023-04-03T01:31:02;-3.70;99.90
16172;DHT22;8192;53.596;10.166;2023-04-03T01:33:34;-3.60;99.90
16172;DHT22;8192;53.596;10.166;2023-04-03T01:36:01;-3.60;99.90
16172;DHT22;8192;53.596;10.166;2023-04-03T01:38:28;-3.50;99.90
16172;DHT22;8192;53.596;10.166;2023-04-03T01:40:55;-3.60;99.90
16172;DHT22;8192;53.596;10.166;2023-04-03T01:43:22;-3.60;99.90
16172;DHT22;8192;53.596;10.166;2023-04-03T01:45:48;-3.50;99.90
16172;DHT22;8192;53.596;10.166;2023-04-03T01:48:16;-3.30;99.90
16172;DHT22;8192;53.596;10.166;2023-04-03T01:50:44;-3.20;99.90
16172;DHT22;8192;53.596;10.166;2023-04-03T01:53:11;-3.20;99.90
16172;DHT22;8192;53.596;10.166;2023-04-03T01:55:38;-3.20;99.90
16172;DHT22;8192;53.596;10.166;2023-04-03T01:58:05;-3.40;99.90
16172;DHT22;8192;53.596;10.166;2023-04-03T02:00:40;-3.50;99.90
16172;DHT22;8192;53.596;10.166;2023-04-03T02:03:07;-3.50;99.90
16172;DHT22;8192;53.596;10.166;2023-04-03T02:05:34;-3.60;99.90
16172;DHT22;8192;53.596;10.166;2023-04-03T02:08:03;-3.50;99.90
16172;DHT22;8192;53.596;10.166;2023-04-03T02:10:29;-3.30;99.90
16172;DHT22;8192;53.596;10.166;2023-04-03T02:12:56;-3.50;99.90
16172;DHT22;8192;53.596;10.166;2023-04-03T02:15:23;-3.40;99.90
16172;DHT22;8192;53.596;10.166;2023-04-03T02:17:50;-3.50;99.90
16172;DHT22;8192;53.596;10.166;2023-04-03T02:20:18;-3.50;99.90
16172;DHT22;8192;53.596;10.166;2023-04-03T02:22:45;-3.60;99.90
16172;DHT22;8192;53.596;10.166;2023-04-03T02:25:14;-3.60;99.90
16172;DHT22;8192;53.596;10.166;2023-04-03T02:27:43;-3.70;99.90
16172;DHT22;8192;53.596;10.166;2023-04-03T02:30:11;-3.70;99.90
16172;DHT22;8192;53.596;10.166;2023-04-03T02:32:38;-3.60;99.90
16172;DHT22;8192;53.596;10.166;2023-04-03T02:35:07;-3.60;99.90
16172;DHT22;8192;53.596;10.166;2023-04-03T02:37:34;-3.60;99.90
16172;DHT22;8192;53.596;10.166;2023-04-03T02:40:02;-3.60;99.90
16172;DHT22;8192;53.596;10.166;2023-04-03T02:42:31;-3.70;99.90
16172;DHT22;8192;53.596;10.166;2023-04-03T02:44:57;-3.70;99.90
16172;DHT22;8192;53.596;10.166;2023-04-03T02:47:26;-3.80;99.90
16172;DHT22;8192;53.596;10.166;2023-04-03T02:49:53;-3.80;99.90
16172;DHT22;8192;53.596;10.166;2023-04-03T02:52:20;-3.90;99.90
16172;DHT22;8192;53.596;10.166;2023-04-03T02:54:48;-4.00;99.90
16172;DHT22;8192;53.596;10.166;2023-04-03T02:57:15;-4.00;99.90
16172;DHT22;8192;53.596;10.166;2023-04-03T02:59:43;-3.90;99.90
16172;DHT22;8192;53.596;10.166;2023-04-03T03:02:10;-3.90;99.90
16172;DHT22;8192;53.596;10.166;2023-04-03T03:04:37;-3.90;99.90
16172;DHT22;8192;53.596;10.166;2023-04-03T03:07:05;-3.90;99.90
16172;DHT22;8192;53.596;10.166;2023-04-03T03:09:32;-3.90;99.90
16172;DHT22;8192;53.596;10.166;2023-04-03T03:11:59;-4.00;99.90
16172;DHT22;8192;53.596;10.166;2023-04-03T03:14:26;-3.90;99.90
16172;DHT22;8192;53.596;10.166;2023-04-03T03:16:54;-3.90;99.90
16172;DHT22;8192;53.596;10.166;2023-04-03T03:19:21;-3.80;99.90
16172;DHT22;8192;53.596;10.166;2023-04-03T03:21:48;-3.80;99.90
16172;DHT22;8192;53.596;10.166;2023-04-03T03:24:15;-3.90;99.90
16172;DHT22;8192;53.596;10.166;2023-04-03T03:26:42;-3.90;99.90
16172;DHT22;8192;53.596;10.166;2023-04-03T03:29:09;-3.90;99.90
16172;DHT22;8192;53.596;10.166;2023-04-03T03:31:36;-3.90;99.90
16172;DHT22;8192;53.596;10.166;2023-04-03T03:34:05;-3.90;99.90
16172;DHT22;8192;53.596;10.166;2023-04-03T03:36:32;-3.90;99.90
16172;DHT22;8192;53.596;10.166;2023-04-03T03:38:58;-3.90;99.90
16172;DHT22;8192;53.596;10.166;2023-04-03T03:41:25;-3.70;99.90
16172;DHT22;8192;53.596;10.166;2023-04-03T03:43:52;-3.50;99.90
16172;DHT22;8192;53.596;10.166;2023-04-03T03:46:19;-3.60;99.90
16172;DHT22;8192;53.596;10.166;2023-04-03T03:48:46;-3.60;99.90
16172;DHT22;8192;53.596;10.166;2023-04-03T03:51:15;-3.70;99.90
16172;DHT22;8192;53.596;10.166;2023-04-03T03:53:42;-3.80;99.90
16172;DHT22;8192;53.596;10.166;2023-04-03T03:56:09;-3.90;99.90
16172;DHT22;8192;53.596;10.166;2023-04-03T03:58:36;-3.90;99.90
16172;DHT22;8192;53.596;10.166;2023-04-03T04:01:03;-4.00;99.90
16172;DHT22;8192;53.596;10.166;2023-04-03T04:03:31;-4.00;99.90
16172;DHT22;8192;53.596;10.166;2023-04-03T04:05:58;-4.00;99.90
16172;DHT22;8192;53.596;10.166;2023-04-03T04:08:27;-4.10;99.90
16172;DHT22;8192;53.596;10.166;2023-04-03T04:10:53;-4.10;99.90
16172;DHT22;8192;53.596;10.166;2023-04-03T04:13:20;-4.00;99.90
16172;DHT22;8192;53.596;10.166;2023-04-03T04:15:47;-4.10;99.90
16172;DHT22;8192;53.596;10.166;2023-04-03T04:18:14;-4.00;99.90
16172;DHT22;8192;53.596;10.166;2023-04-03T04:20:41;-4.10;99.90
16172;DHT22;8192;53.596;10.166;2023-04-03T04:23:08;-4.20;99.90
16172;DHT22;8192;53.596;10.166;2023-04-03T04:25:36;-4.10;99.90
16172;DHT22;8192;53.596;10.166;2023-04-03T04:28:04;-4.10;99.90
16172;DHT22;8192;53.596;10.166;2023-04-03T04:30:31;-4.10;99.90
16172;DHT22;8192;53.596;10.166;2023-04-03T04:32:57;-4.10;99.90
16172;DHT22;8192;53.596;10.166;2023-04-03T04:35:25;-4.20;99.90
16172;DHT22;8192;53.596;10.166;2023-04-03T04:37:52;-4.20;99.90
16172;DHT22;8192;53.596;10.166;2023-04-03T04:40:19;-4.20;99.90
16172;DHT22;8192;53.596;10.166;2023-04-03T04:42:47;-4.10;99.90
16172;DHT22;8192;53.596;10.166;2023-04-03T04:45:15;-4.10;99.90
16172;DHT22;8192;53.596;10.166;2023-04-03T04:47:42;-4.10;99.90
16172;DHT22;8192;53.596;10.166;2023-04-03T04:50:10;-4.10;99.90
16172;DHT22;8192;53.596;10.166;2023-04-03T04:52:37;-4.00;99.90
16172;DHT22;8192;53.596;10.166;2023-04-03T04:55:05;-4.00;99.90
16172;DHT22;8192;53.596;10.166;2023-04-03T04:57:32;-3.90;99.90
16172;DHT22;8192;53.596;10.166;2023-04-03T05:00:01;-3.90;99.90
16172;DHT22;8192;53.596;10.166;2023-04-03T05:02:29;-3.70;99.90
16172;DHT22;8192;53.596;10.166;2023-04-03T05:04:56;-3.70;99.90
16172;DHT22;8192;53.596;10.166;2023-04-03T05:07:23;-3.80;99.90
16172;DHT22;8192;53.596;10.166;2023-04-03T05:09:50;-3.80;99.90
16172;DHT22;8192;53.596;10.166;2023-04-03T05:12:17;-3.80;99.90
16172;DHT22;8192;53.596;10.166;2023-04-03T05:14:44;-3.80;99.90
16172;DHT22;8192;53.596;10.166;2023-04-03T05:17:12;-3.80;99.90
16172;DHT22;8192;53.596;10.166;2023-04-03T05:19:39;-3.80;99.90
16172;DHT22;8192;53.596;10.166;2023-04-03T05:22:06;-3.80;99.90
16172;DHT22;8192;53.596;10.166;2023-04-03T05:24:34;-3.90;99.90
16172;DHT22;8192;53.596;10.166;2023-04-03T05:27:02;-3.80;99.90
16172;DHT22;8192;53.596;10.166;2023-04-03T05:29:29;-3.70;99.90
16172;DHT22;8192;53.596;10.166;2023-04-03T05:31:58;-3.60;99.90
16172;DHT22;8192;53.596;10.166;2023-04-03T05:34:27;-3.50;99.90
16172;DHT22;8192;53.596;10.166;2023-04-03T05:36:54;-3.30;99.90
16172;DHT22;8192;53.596;10.166;2023-04-03T05:39:21;-3.20;99.90
16172;DHT22;8192;53.596;10.166;2023-04-03T05:41:49;-3.00;99.90
16172;DHT22;8192;53.596;10.166;2023-04-03T05:44:16;-2.80;99.90
16172;DHT22;8192;53.596;10.166;2023-04-03T05:46:43;-2.40;99.90
16172;DHT22;8192;53.596;10.166;2023-04-03T05:49:10;-2.00;99.90
16172;DHT22;8192;53.596;10.166;2023-04-03T05:51:40;-1.70;99.90
16172;DHT22;8192;53.596;10.166;2023-04-03T05:54:12;-1.40;99.90
16172;DHT22;8192;53.596;10.166;2023-04-03T05:56:39;-0.90;99.90
16172;DHT22;8192;53.596;10.166;2023-04-03T05:59:07;0.10;99.90
16172;DHT22;8192;53.596;10.166;2023-04-03T06:01:34;1.00;99.90
16172;DHT22;8192;53.596;10.166;2023-04-03T06:04:01;1.80;99.90
16172;DHT22;8192;53.596;10.166;2023-04-03T06:06:45;2.30;99.90
16172;DHT22;8192;53.596;10.166;2023-04-03T06:09:13;2.90;99.90
16172;DHT22;8192;53.596;10.166;2023-04-03T06:11:41;3.30;99.90
16172;DHT22;8192;53.596;10.166;2023-04-03T06:14:18;3.80;99.90
16172;DHT22;8192;53.596;10.166;2023-04-03T06:16:45;4.40;99.90
16172;DHT22;8192;53.596;10.166;2023-04-03T06:19:13;4.60;99.90
16172;DHT22;8192;53.596;10.166;2023-04-03T06:21:40;4.70;99.90
16172;DHT22;8192;53.596;10.166;2023-04-03T06:24:10;5.10;99.90
16172;DHT22;8192;53.596;10.166;2023-04-03T06:26:44;5.70;99.90
16172;DHT22;8192;53.596;10.166;2023-04-03T06:29:11;5.60;99.90
16172;DHT22;8192;53.596;10.166;2023-04-03T06:31:39;5.70;99.90
16172;DHT22;8192;53.596;10.166;2023-04-03T06:34:08;5.90;99.90
16172;DHT22;8192;53.596;10.166;2023-04-03T06:36:35;5.90;99.90
16172;DHT22;8192;53.596;10.166;2023-04-03T06:39:02;6.20;99.90
16172;DHT22;8192;53.596;10.166;2023-04-03T06:41:31;6.50;99.90
16172;DHT22;8192;53.596;10.166;2023-04-03T06:43:59;6.80;99.90
16172;DHT22;8192;53.596;10.166;2023-04-03T06:46:26;6.80;99.90
16172;DHT22;8192;53.596;10.166;2023-04-03T06:48:54;7.10;99.90
16172;DHT22;8192;53.596;10.166;2023-04-03T06:51:24;7.20;99.90
16172;DHT22;8192;53.596;10.166;2023-04-03T06:53:53;7.20;99.90
16172;DHT22;8192;53.596;10.166;2023-04-03T06:56:21;7.40;99.90
16172;DHT22;8192;53.596;10.166;2023-04-03T06:58:50;7.80;99.90
16172;DHT22;8192;53.596;10.166;2023-04-03T07:01:20;8.20;99.90
16172;DHT22;8192;53.596;10.166;2023-04-03T07:03:47;8.40;99.90
16172;DHT22;8192;53.596;10.166;2023-04-03T07:06:16;8.40;99.90
16172;DHT22;8192;53.596;10.166;2023-04-03T07:11:54;7.90;99.90
16172;DHT22;8192;53.596;10.166;2023-04-03T07:14:24;7.60;99.90
16172;DHT22;8192;53.596;10.166;2023-04-03T07:16:52;7.90;99.90
16172;DHT22;8192;53.596;10.166;2023-04-03T07:19:20;8.20;99.90
16172;DHT22;8192;53.596;10.166;2023-04-03T07:25:09;7.90;99.90
16172;DHT22;8192;53.596;10.166;2023-04-03T07:27:36;7.90;99.90
16172;DHT22;8192;53.596;10.166;2023-04-03T07:30:07;7.80;99.90
16172;DHT22;8192;53.596;10.166;2023-04-03T07:32:36;7.90;99.90
16172;DHT22;8192;53.596;10.166;2023-04-03T07:35:03;8.40;99.90
16172;DHT22;8192;53.596;10.166;2023-04-03T07:37:31;8.50;99.90
16172;DHT22;8192;53.596;10.166;2023-04-03T07:39:58;8.60;99.90
16172;DHT22;8192;53.596;10.166;2023-04-03T07:42:28;8.90;99.90
16172;DHT22;8192;53.596;10.166;2023-04-03T07:44:55;8.80;99.90
16172;DHT22;8192;53.596;10.166;2023-04-03T07:47:24;8.80;99.90
16172;DHT22;8192;53.596;10.166;2023-04-03T07:49:52;8.70;99.90
16172;DHT22;8192;53.596;10.166;2023-04-03T07:52:19;7.90;99.90
16172;DHT22;8192;53.596;10.166;2023-04-03T07:54:46;6.80;99.90
16172;DHT22;8192;53.596;10.166;2023-04-03T07:57:13;6.50;99.90
16172;DHT22;8192;53.596;10.166;2023-04-03T07:59:41;5.90;99.90
16172;DHT22;8192;53.596;10.166;2023-04-03T08:02:09;5.40;99.90
16172;DHT22;8192;53.596;10.166;2023-04-03T08:04:38;5.20;99.90
16172;DHT22;8192;53.596;10.166;2023-04-03T08:07:06;5.10;99.90
16172;DHT22;8192;53.596;10.166;2023-04-03T08:09:33;4.90;99.90
16172;DHT22;8192;53.596;10.166;2023-04-03T08:12:01;4.90;99.90
16172;DHT22;8192;53.596;10.166;2023-04-03T08:14:30;4.70;99.90
16172;DHT22;8192;53.596;10.166;2023-04-03T08:17:00;4.80;99.90
16172;DHT22;8192;53.596;10.166;2023-04-03T08:19:47;4.90;99.90
16172;DHT22;8192;53.596;10.166;2023-04-03T08:22:16;4.90;99.90
16172;DHT22;8192;53.596;10.166;2023-04-03T08:24:44;5.00;99.90
16172;DHT22;8192;53.596;10.166;2023-04-03T08:27:12;5.00;99.90
16172;DHT22;8192;53.596;10.166;2023-04-03T08:29:50;5.00;99.90
16172;DHT22;8192;53.596;10.166;2023-04-03T08:32:17;5.20;99.90
16172;DHT22;8192;53.596;10.166;2023-04-03T08:34:47;5.40;99.90
16172;DHT22;8192;53.596;10.166;2023-04-03T08:37:22;5.40;99.90
16172;DHT22;8192;53.596;10.166;2023-04-03T08:39:49;5.50;99.90
16172;DHT22;8192;53.596;10.166;2023-04-03T08:42:30;5.70;99.90
16172;DHT22;8192;53.596;10.166;2023-04-03T08:45:03;5.50;99.90
16172;DHT22;8192;53.596;10.166;2023-04-03T08:47:40;5.50;99.90
16172;DHT22;8192;53.596;10.166;2023-04-03T08:50:17;5.40;99.90
16172;DHT22;8192;53.596;10.166;2023-04-03T08:52:48;5.40;99.90
16172;DHT22;8192;53.596;10.166;2023-04-03T08:55:23;5.40;99.90
16172;DHT22;8192;53.596;10.166;2023-04-03T08:57:58;5.40;99.90
16172;DHT22;8192;53.596;10.166;2023-04-03T09:00:43;5.30;99.90
16172;DHT22;8192;53.596;10.166;2023-04-03T09:03:13;5.30;99.90
16172;DHT22;8192;53.596;10.166;2023-04-03T09:05:46;5.30;99.90
16172;DHT22;8192;53.596;10.166;2023-04-03T09:08:22;5.60;99.90
16172;DHT22;8192;53.596;10.166;2023-04-03T09:10:59;5.80;99.90
16172;DHT22;8192;53.596;10.166;2023-04-03T09:13:35;5.80;99.90
16172;DHT22;8192;53.596;10.166;2023-04-03T09:16:12;5.90;99.90
16172;DHT22;8192;53.596;10.166;2023-04-03T09:18:47;5.80;99.90
16172;DHT22;8192;53.596;10.166;2023-04-03T09:21:35;5.90;99.90
16172;DHT22;8192;53.596;10.166;2023-04-03T09:24:06;6.10;99.90
16172;DHT22;8192;53.596;10.166;2023-04-03T09:26:36;6.10;99.90
16172;DHT22;8192;53.596;10.166;2023-04-03T09:29:07;6.00;99.90
16172;DHT22;8192;53.596;10.166;2023-04-03T09:31:38;6.00;99.90
16172;DHT22;8192;53.596;10.166;2023-04-03T09:34:09;6.00;99.90
16172;DHT22;8192;53.596;10.166;2023-04-03T09:37:06;6.20;99.90
16172;DHT22;8192;53.596;10.166;2023-04-03T09:39:50;6.10;99.90
16172;DHT22;8192;53.596;10.166;2023-04-03T09:42:20;6.10;99.90
16172;DHT22;8192;53.596;10.166;2023-04-03T09:44:54;6.10;99.90
16172;DHT22;8192;53.596;10.166;2023-04-03T09:47:25;6.00;99.90
16172;DHT22;8192;53.596;10.166;2023-04-03T09:50:10;6.10;99.90
16172;DHT22;8192;53.596;10.166;2023-04-03T09:55:46;6.20;95.80
16172;DHT22;8192;53.596;10.166;2023-04-03T09:58:25;6.20;95.40
16172;DHT22;8192;53.596;10.166;2023-04-03T10:00:57;6.30;91.70
16172;DHT22;8192;53.596;10.166;2023-04-03T10:03:29;6.40;95.50
16172;DHT22;8192;53.596;10.166;2023-04-03T10:05:57;6.60;94.30
16172;DHT22;8192;53.596;10.166;2023-04-03T10:08:28;6.50;97.10
16172;DHT22;8192;53.596;10.166;2023-04-03T10:11:12;6.70;93.60
16172;DHT22;8192;53.596;10.166;2023-04-03T10:14:03;6.60;91.60
16172;DHT22;8192;53.596;10.166;2023-04-03T10:16:43;6.50;89.70
16172;DHT22;8192;53.596;10.166;2023-04-03T10:19:28;6.60;82.80
16172;DHT22;8192;53.596;10.166;2023-04-03T10:21:59;6.60;80.50
16172;DHT22;8192;53.596;10.166;2023-04-03T10:24:33;6.70;81.80
16172;DHT22;8192;53.596;10.166;2023-04-03T10:27:11;6.90;83.10
16172;DHT22;8192;53.596;10.166;2023-04-03T10:29:47;7.20;82.90
16172;DHT22;8192;53.596;10.166;2023-04-03T10:32:44;7.30;81.60
16172;DHT22;8192;53.596;10.166;2023-04-03T10:35:18;7.70;81.60
16172;DHT22;8192;53.596;10.166;2023-04-03T10:37:57;7.80;80.50
16172;DHT22;8192;53.596;10.166;2023-04-03T10:40:31;7.70;80.00
16172;DHT22;8192;53.596;10.166;2023-04-03T10:43:08;7.70;75.10
16172;DHT22;8192;53.596;10.166;2023-04-03T10:45:50;7.70;71.70
16172;DHT22;8192;53.596;10.166;2023-04-03T10:48:33;7.60;72.60
16172;DHT22;8192;53.596;10.166;2023-04-03T10:51:23;7.40;71.90
16172;DHT22;8192;53.596;10.166;2023-04-03T10:53:57;7.50;70.30
16172;DHT22;8192;53.596;10.166;2023-04-03T10:56:31;7.60;66.70
16172;DHT22;8192;53.596;10.166;2023-04-03T10:59:06;7.60;72.50
16172;DHT22;8192;53.596;10.166;2023-04-03T11:01:43;7.70;71.00
16172;DHT22;8192;53.596;10.166;2023-04-03T11:04:16;7.70;69.60
16172;DHT22;8192;53.596;10.166;2023-04-03T11:06:53;7.70;68.80
16172;DHT22;8192;53.596;10.166;2023-04-03T11:13:02;7.20;61.30
16172;DHT22;8192;53.596;10.166;2023-04-03T11:15:43;6.70;58.40
16172;DHT22;8192;53.596;10.166;2023-04-03T11:18:28;6.60;58.30
16172;DHT22;8192;53.596;10.166;2023-04-03T11:21:03;6.80;55.00
16172;DHT22;8192;53.596;10.166;2023-04-03T11:23:34;7.00;53.60
16172;DHT22;8192;53.596;10.166;2023-04-03T11:26:09;7.00;54.40
16172;DHT22;8192;53.596;10.166;2023-04-03T11:28:38;7.10;55.70
16172;DHT22;8192;53.596;10.166;2023-04-03T11:34:09;7.90;51.10
16172;DHT22;8192;53.596;10.166;2023-04-03T11:36:44;8.20;53.20
16172;DHT22;8192;53.596;10.166;2023-04-03T11:39:21;8.50;53.30
16172;DHT22;8192;53.596;10.166;2023-04-03T11:42:13;8.70;51.50
16172;DHT22;8192;53.596;10.166;2023-04-03T11:44:41;8.30;48.70
16172;DHT22;8192;53.596;10.166;2023-04-03T11:47:11;8.60;52.50
16172;DHT22;8192;53.596;10.166;2023-04-03T11:49:53;9.10;54.30
16172;DHT22;8192;53.596;10.166;2023-04-03T11:55:54;8.90;46.50
16172;DHT22;8192;53.596;10.166;2023-04-03T11:58:23;8.40;48.90
16172;DHT22;8192;53.596;10.166;2023-04-03T12:00:59;8.20;48.20
16172;DHT22;8192;53.596;10.166;2023-04-03T12:09:33;7.70;46.30
16172;DHT22;8192;53.596;10.166;2023-04-03T12:14:43;7.00;45.10
16172;DHT22;8192;53.596;10.166;2023-04-03T12:17:21;6.90;45.60
16172;DHT22;8192;53.596;10.166;2023-04-03T12:19:51;7.10;47.20
16172;DHT22;8192;53.596;10.166;2023-04-03T12:25:48;7.70;44.90
16172;DHT22;8192;53.596;10.166;2023-04-03T12:28:16;8.30;45.10
16172;DHT22;8192;53.596;10.166;2023-04-03T12:30:44;8.50;42.40
16172;DHT22;8192;53.596;10.166;2023-04-03T12:33:23;7.90;39.80
16172;DHT22;8192;53.596;10.166;2023-04-03T12:36:04;7.60;40.20
16172;DHT22;8192;53.596;10.166;2023-04-03T12:39:01;7.20;39.80
16172;DHT22;8192;53.596;10.166;2023-04-03T12:41:37;7.00;41.90
16172;DHT22;8192;53.596;10.166;2023-04-03T12:44:25;7.30;43.00
16172;DHT22;8192;53.596;10.166;2023-04-03T12:46:54;7.60;38.40
16172;DHT22;8192;53.596;10.166;2023-04-03T12:49:32;7.60;39.00
16172;DHT22;8192;53.596;10.166;2023-04-03T12:52:04;7.50;37.80
16172;DHT22;8192;53.596;10.166;2023-04-03T12:54:35;7.30;37.40
16172;DHT22;8192;53.596;10.166;2023-04-03T12:57:10;7.10;35.50
16172;DHT22;8192;53.596;10.166;2023-04-03T12:59:37;7.20;33.60
16172;DHT22;8192;53.596;10.166;2023-04-03T13:05:35;7.40;35.30
16172;DHT22;8192;53.596;10.166;2023-04-03T13:08:07;7.50;35.70
16172;DHT22;8192;53.596;10.166;2023-04-03T13:10:45;7.80;36.40
16172;DHT22;8192;53.596;10.166;2023-04-03T13:13:15;7.70;34.10
16172;DHT22;8192;53.596;10.166;2023-04-03T13:15:44;7.70;34.70
16172;DHT22;8192;53.596;10.166;2023-04-03T13:18:29;7.70;33.90
16172;DHT22;8192;53.596;10.166;2023-04-03T13:21:00;7.80;33.20
16172;DHT22;8192;53.596;10.166;2023-04-03T13:23:30;7.70;32.80
16172;DHT22;8192;53.596;10.166;2023-04-03T13:25:58;7.60;32.50
16172;DHT22;8192;53.596;10.166;2023-04-03T13:28:30;7.40;33.10
16172;DHT22;8192;53.596;10.166;2023-04-03T13:31:04;7.30;30.80
16172;DHT22;8192;53.596;10.166;2023-04-03T13:37:21;7.40;32.60
16172;DHT22;8192;53.596;10.166;2023-04-03T13:40:00;7.50;30.70
16172;DHT22;8192;53.596;10.166;2023-04-03T13:42:30;7.40;27.20
16172;DHT22;8192;53.596;10.166;2023-04-03T13:45:17;7.50;29.20
16172;DHT22;8192;53.596;10.166;2023-04-03T13:47:48;7.50;31.10
16172;DHT22;8192;53.596;10.166;2023-04-03T13:56:57;7.70;25.80
16172;DHT22;8192;53.596;10.166;2023-04-03T13:59:28;7.60;25.50
16172;DHT22;8192;53.596;10.166;2023-04-03T14:02:10;7.50;26.00
16172;DHT22;8192;53.596;10.166;2023-04-03T14:04:51;7.60;29.00
16172;DHT22;8192;53.596;10.166;2023-04-03T14:07:18;7.50;28.00
16172;DHT22;8192;53.596;10.166;2023-04-03T14:09:47;7.40;27.00
16172;DHT22;8192;53.596;10.166;2023-04-03T14:12:18;7.50;28.30
16172;DHT22;8192;53.596;10.166;2023-04-03T14:17:49;8.00;22.50
16172;DHT22;8192;53.596;10.166;2023-04-03T14:20:21;7.90;22.00
16172;DHT22;8192;53.596;10.166;2023-04-03T14:22:48;8.10;23.80
16172;DHT22;8192;53.596;10.166;2023-04-03T14:25:17;8.20;22.70
16172;DHT22;8192;53.596;10.166;2023-04-03T14:27:48;8.30;24.20
16172;DHT22;8192;53.596;10.166;2023-04-03T14:30:17;8.70;23.60
16172;DHT22;8192;53.596;10.166;2023-04-03T14:32:45;8.70;24.60
16172;DHT22;8192;53.596;10.166;2023-04-03T14:35:13;8.60;26.10
16172;DHT22;8192;53.596;10.166;2023-04-03T14:37:40;8.70;25.50
16172;DHT22;8192;53.596;10.166;2023-04-03T14:40:11;8.80;25.60
16172;DHT22;8192;53.596;10.166;2023-04-03T14:42:39;8.70;24.50
16172;DHT22;8192;53.596;10.166;2023-04-03T14:45:12;8.40;25.50
16172;DHT22;8192;53.596;10.166;2023-04-03T14:47:42;8.80;25.30
16172;DHT22;8192;53.596;10.166;2023-04-03T14:50:15;8.60;25.80
16172;DHT22;8192;53.596;10.166;2023-04-03T14:52:44;8.60;27.00
16172;DHT22;8192;53.596;10.166;2023-04-03T14:58:34;8.60;25.50
16172;DHT22;8192;53.596;10.166;2023-04-03T15:01:04;8.40;25.20
16172;DHT22;8192;53.596;10.166;2023-04-03T15:03:30;8.80;26.30
16172;DHT22;8192;53.596;10.166;2023-04-03T15:05:58;8.50;25.70
16172;DHT22;8192;53.596;10.166;2023-04-03T15:08:26;8.60;25.90
16172;DHT22;8192;53.596;10.166;2023-04-03T15:10:55;8.30;25.70
16172;DHT22;8192;53.596;10.166;2023-04-03T15:13:23;8.10;27.30
16172;DHT22;8192;53.596;10.166;2023-04-03T15:15:51;7.40;26.90
16172;DHT22;8192;53.596;10.166;2023-04-03T15:18:21;7.00;28.00
16172;DHT22;8192;53.596;10.166;2023-04-03T15:20:49;6.80;28.90
16172;DHT22;8192;53.596;10.166;2023-04-03T15:23:17;6.90;30.50
16172;DHT22;8192;53.596;10.166;2023-04-03T15:25:45;7.60;30.30
16172;DHT22;8192;53.596;10.166;2023-04-03T15:28:18;8.00;29.40
16172;DHT22;8192;53.596;10.166;2023-04-03T15:30:46;8.10;29.00
16172;DHT22;8192;53.596;10.166;2023-04-03T15:33:14;8.20;32.00
16172;DHT22;8192;53.596;10.166;2023-04-03T15:35:49;8.00;28.30
16172;DHT22;8192;53.596;10.166;2023-04-03T15:38:16;7.90;30.40
16172;DHT22;8192;53.596;10.166;2023-04-03T15:40:43;7.60;30.10
16172;DHT22;8192;53.596;10.166;2023-04-03T15:43:12;7.20;31.90
16172;DHT22;8192;53.596;10.166;2023-04-03T15:45:42;6.70;32.80
16172;DHT22;8192;53.596;10.166;2023-04-03T15:48:11;6.60;35.60
16172;DHT22;8192;53.596;10.166;2023-04-03T15:50:39;6.40;35.70
16172;DHT22;8192;53.596;10.166;2023-04-03T15:53:09;6.40;36.00
16172;DHT22;8192;53.596;10.166;2023-04-03T15:55:37;6.30;37.00
16172;DHT22;8192;53.596;10.166;2023-04-03T15:58:05;6.50;37.90
16172;DHT22;8192;53.596;10.166;2023-04-03T16:00:32;6.70;33.60
16172;DHT22;8192;53.596;10.166;2023-04-03T16:03:02;6.60;33.20
16172;DHT22;8192;53.596;10.166;2023-04-03T16:05:31;6.60;32.00
16172;DHT22;8192;53.596;10.166;2023-04-03T16:07:59;6.60;33.70
16172;DHT22;8192;53.596;10.166;2023-04-03T16:10:28;6.70;35.10
16172;DHT22;8192;53.596;10.166;2023-04-03T16:12:55;6.70;35.10
16172;DHT22;8192;53.596;10.166;2023-04-03T16:15:23;6.60;36.50
16172;DHT22;8192;53.596;10.166;2023-04-03T16:17:51;6.30;36.20
16172;DHT22;8192;53.596;10.166;2023-04-03T16:20:19;6.30;37.60
16172;DHT22;8192;53.596;10.166;2023-04-03T16:22:47;6.40;37.90
16172;DHT22;8192;53.596;10.166;2023-04-03T16:25:15;6.30;37.20
16172;DHT22;8192;53.596;10.166;2023-04-03T16:27:44;6.30;38.10
16172;DHT22;8192;53.596;10.166;2023-04-03T16:30:12;6.30;38.50
16172;DHT22;8192;53.596;10.166;2023-04-03T16:32:39;6.30;40.50
16172;DHT22;8192;53.596;10.166;2023-04-03T16:35:07;6.20;41.00
16172;DHT22;8192;53.596;10.166;2023-04-03T16:37:36;6.10;40.90
16172;DHT22;8192;53.596;10.166;2023-04-03T16:40:06;6.20;41.60
16172;DHT22;8192;53.596;10.166;2023-04-03T16:43:04;6.10;40.50
16172;DHT22;8192;53.596;10.166;2023-04-03T16:45:32;6.20;41.10
16172;DHT22;8192;53.596;10.166;2023-04-03T16:48:11;6.00;42.30
16172;DHT22;8192;53.596;10.166;2023-04-03T16:51:03;5.90;42.70
16172;DHT22;8192;53.596;10.166;2023-04-03T16:53:32;5.70;43.20
16172;DHT22;8192;53.596;10.166;2023-04-03T16:56:15;5.50;43.40